Time;durP1;ratioP1;P1;durP2;ratioP2;P2;SDS_P1;SDS_P2;PMS_P1;PMS_P2;Temp;Humidity;BMP_temperature;BMP_pressure;BME280_temperature;BME280_humidity;BME280_pressure;Samples;Min_cycle;Max_cycle;Signal;HPM_P1;HPM_P2
2021/12/02 00:00:45;;;;;;;1999.90;999.90;;;4.80;99.90;;;;;;5014314;28;20064;-63
2021/12/02 00:03:12;;;;;;;1999.90;999.90;;;4.70;99.90;;;;;;5013486;28;20042;-64
2021/12/02 00:05:38;;;;;;;1999.90;999.90;;;4.70;99.90;;;;;;5014455;28;20149;-63
2021/12/02 00:08:04;;;;;;;1999.90;999.90;;;4.70;99.90;;;;;;5013552;28;20496;-64
2021/12/02 00:10:31;;;;;;;1999.90;999.90;;;4.70;99.90;;;;;;5013635;28;20085;-64
2021/12/02 00:12:58;;;;;;;1999.90;999.90;;;4.70;99.90;;;;;;5013698;28;20105;-64
2021/12/02 00:15:29;;;;;;;1999.90;999.90;;;4.70;99.90;;;;;;5013688;28;20134;-63
2021/12/02 00:18:08;;;;;;;1999.90;999.90;;;4.80;99.90;;;;;;5014559;28;20197;-64
2021/12/02 00:23:34;;;;;;;1999.90;999.90;;;4.70;99.90;;;;;;5013248;28;20048;-63
2021/12/02 00:26:07;;;;;;;1999.90;999.90;;;4.70;99.90;;;;;;4996328;28;20133;-63
2021/12/02 00:28:37;;;;;;;1999.90;999.90;;;4.60;99.90;;;;;;5013707;28;20053;-63
2021/12/02 00:31:03;;;;;;;1999.90;999.90;;;4.60;99.90;;;;;;5013308;28;20057;-63
2021/12/02 00:33:31;;;;;;;1999.90;999.90;;;4.60;99.90;;;;;;5014141;28;20049;-63
2021/12/02 00:35:57;;;;;;;1999.90;999.90;;;4.60;99.90;;;;;;4996300;28;20057;-63
2021/12/02 00:38:24;;;;;;;1999.90;999.90;;;4.50;99.90;;;;;;5012900;28;20042;-63
2021/12/02 00:40:51;;;;;;;1999.90;999.90;;;4.60;99.90;;;;;;5014166;28;20042;-63
2021/12/02 00:43:17;;;;;;;1999.90;999.90;;;4.60;99.90;;;;;;4996112;28;20100;-63
2021/12/02 00:45:44;;;;;;;1999.90;999.90;;;4.70;99.90;;;;;;5013468;28;20061;-63
2021/12/02 00:48:11;;;;;;;1999.90;999.90;;;4.70;99.90;;;;;;5013405;28;20045;-63
2021/12/02 00:50:40;;;;;;;1999.90;999.90;;;4.30;99.90;;;;;;5012624;28;20053;-63
2021/12/02 00:53:07;;;;;;;1999.90;999.90;;;4.30;99.90;;;;;;5013804;28;20053;-63
2021/12/02 00:55:38;;;;;;;1999.90;999.90;;;4.30;99.90;;;;;;5013436;28;20464;-63
2021/12/02 00:58:05;;;;;;;1999.90;999.90;;;4.30;99.90;;;;;;5012476;28;20050;-63
2021/12/02 01:00:32;;;;;;;1999.90;999.90;;;4.30;99.90;;;;;;5013520;28;20045;-63
2021/12/02 01:03:00;;;;;;;1999.90;999.90;;;4.30;99.90;;;;;;5013593;28;20057;-63
2021/12/02 01:05:27;;;;;;;1999.90;999.90;;;4.30;99.90;;;;;;5012323;28;20042;-63
2021/12/02 01:07:53;;;;;;;1999.90;999.90;;;4.30;99.90;;;;;;5013633;28;20049;-63
2021/12/02 01:10:19;;;;;;;1999.90;999.90;;;4.30;99.90;;;;;;5013370;28;20162;-63
2021/12/02 01:12:46;;;;;;;1999.90;999.90;;;4.40;99.90;;;;;;5012425;28;20488;-63
2021/12/02 01:15:13;;;;;;;1999.90;999.90;;;4.40;99.90;;;;;;5012999;28;20404;-63
2021/12/02 01:17:40;;;;;;;1999.90;999.90;;;4.40;99.90;;;;;;5013316;28;20078;-63
2021/12/02 01:20:07;;;;;;;1999.90;999.90;;;4.30;99.90;;;;;;5012003;28;20478;-63
2021/12/02 01:22:37;;;;;;;1999.90;999.90;;;4.30;99.90;;;;;;5013143;28;20042;-63
2021/12/02 01:25:06;;;;;;;1999.90;999.90;;;4.30;99.90;;;;;;4995359;28;20125;-63
2021/12/02 01:27:35;;;;;;;1999.90;999.90;;;4.30;99.90;;;;;;5012119;28;20042;-63
2021/12/02 01:30:01;;;;;;;1999.90;999.90;;;4.20;99.90;;;;;;5013024;28;20050;-63
2021/12/02 01:32:29;;;;;;;1999.90;999.90;;;4.20;99.90;;;;;;5018770;28;20042;-63
2021/12/02 01:34:57;;;;;;;1999.90;999.90;;;4.20;99.90;;;;;;5020029;28;20084;-62
2021/12/02 01:37:23;;;;;;;1999.90;999.90;;;4.20;99.90;;;;;;5023167;28;20647;-63
2021/12/02 01:39:49;;;;;;;1999.90;999.90;;;4.10;99.90;;;;;;5020814;28;20503;-62
2021/12/02 01:42:28;;;;;;;1999.90;999.90;;;4.00;99.90;;;;;;5016511;28;20104;-62
2021/12/02 01:44:57;;;;;;;1999.90;999.90;;;3.90;99.90;;;;;;5028864;28;20124;-62
2021/12/02 01:47:26;;;;;;;1999.90;999.90;;;3.90;99.90;;;;;;5014195;28;20049;-62
2021/12/02 01:49:57;;;;;;;1999.90;999.90;;;3.80;99.90;;;;;;5031768;28;20053;-62
2021/12/02 01:52:30;;;;;;;1999.90;999.90;;;3.80;99.90;;;;;;5032683;28;20105;-62
2021/12/02 01:55:12;;;;;;;1999.90;999.90;;;3.80;99.90;;;;;;5032083;28;20049;-62
2021/12/02 01:57:45;;;;;;;1999.90;999.90;;;3.80;99.90;;;;;;5019159;28;20061;-62
2021/12/02 02:00:15;;;;;;;1999.90;999.90;;;3.80;99.90;;;;;;5032503;28;20041;-62
2021/12/02 02:02:42;;;;;;;1999.90;999.90;;;3.90;99.90;;;;;;5031758;28;20138;-62
2021/12/02 02:05:13;;;;;;;1999.90;999.90;;;3.90;99.90;;;;;;5032193;28;20049;-62
2021/12/02 02:07:52;;;;;;;1999.90;999.90;;;3.90;99.90;;;;;;5023792;28;20127;-62
2021/12/02 02:10:18;;;;;;;1999.90;999.90;;;3.90;99.90;;;;;;5012353;28;20050;-63
2021/12/02 02:12:44;;;;;;;1999.90;999.90;;;4.00;99.90;;;;;;5012756;28;20073;-62
2021/12/02 02:15:10;;;;;;;1999.90;999.90;;;4.00;99.90;;;;;;5011952;28;20535;-63
2021/12/02 02:17:47;;;;;;;1999.90;999.90;;;3.90;99.90;;;;;;5012325;28;20088;-63
2021/12/02 02:20:14;;;;;;;1999.90;999.90;;;3.90;99.90;;;;;;5012695;28;20465;-63
2021/12/02 02:22:40;;;;;;;1999.90;999.90;;;3.80;99.90;;;;;;4995118;28;20542;-63
2021/12/02 02:25:14;;;;;;;1999.90;999.90;;;3.70;99.90;;;;;;5015881;28;20049;-63
2021/12/02 02:27:41;;;;;;;1999.90;999.90;;;;;;;;;;5016686;28;20089;-63
2021/12/02 02:30:11;;;;;;;1999.90;999.90;;;3.50;99.90;;;;;;5015751;28;20092;-63
2021/12/02 02:32:37;;;;;;;1999.90;999.90;;;3.50;99.90;;;;;;5016203;28;20104;-63
2021/12/02 02:35:04;;;;;;;1999.90;999.90;;;3.10;99.90;;;;;;5015924;28;20484;-63
2021/12/02 02:37:33;;;;;;;1999.90;999.90;;;3.00;99.90;;;;;;4997823;28;20046;-63
2021/12/02 02:40:05;;;;;;;1999.90;999.90;;;2.90;99.90;;;;;;5016138;28;20121;-63
2021/12/02 02:42:31;;;;;;;1999.90;999.90;;;2.90;99.90;;;;;;5020719;28;20563;-63
2021/12/02 02:44:57;;;;;;;1999.90;999.90;;;2.90;99.90;;;;;;5008448;28;20121;-62
2021/12/02 02:47:25;;;;;;;1999.90;999.90;;;2.90;99.90;;;;;;5023686;28;20121;-62
2021/12/02 02:49:51;;;;;;;1999.90;999.90;;;2.80;99.90;;;;;;5023968;28;20053;-62
2021/12/02 02:52:17;;;;;;;1999.90;999.90;;;2.90;99.90;;;;;;5023398;28;20057;-62
2021/12/02 02:54:43;;;;;;;1999.90;999.90;;;2.90;99.90;;;;;;5026976;28;20049;-62
2021/12/02 02:57:12;;;;;;;1999.90;999.90;;;3.00;99.90;;;;;;5010163;28;20116;-62
2021/12/02 03:00:01;;;;;;;1999.90;999.90;;;2.90;99.90;;;;;;4996099;28;20544;-62
2021/12/02 03:05:03;;;;;;;1999.90;999.90;;;2.90;99.90;;;;;;4995476;28;20100;-62
2021/12/02 03:07:40;;;;;;;1999.90;999.90;;;2.90;99.90;;;;;;4996010;28;20507;-62
2021/12/02 03:10:26;;;;;;;1999.90;999.90;;;2.90;99.90;;;;;;4995157;28;20038;-61
2021/12/02 03:12:56;;;;;;;1999.90;999.90;;;2.90;99.90;;;;;;4995280;28;20061;-61
2021/12/02 03:17:49;;;;;;;1999.90;999.90;;;2.80;99.90;;;;;;4995507;28;20051;-62
2021/12/02 03:20:15;;;;;;;1999.90;999.90;;;2.80;99.90;;;;;;4995194;28;20050;-62
2021/12/02 03:22:43;;;;;;;1999.90;999.90;;;2.70;99.90;;;;;;4995623;28;20052;-62
2021/12/02 03:25:09;;;;;;;1999.90;999.90;;;2.60;99.90;;;;;;4994604;28;20050;-61
2021/12/02 03:27:35;;;;;;;1999.90;999.90;;;2.60;99.90;;;;;;5006376;28;20504;-62
2021/12/02 03:30:02;;;;;;;1999.90;999.90;;;2.50;99.90;;;;;;5015288;28;20049;-62
2021/12/02 03:32:28;;;;;;;1999.90;999.90;;;2.50;99.90;;;;;;4996881;28;20042;-62
2021/12/02 03:34:54;;;;;;;1999.90;999.90;;;2.50;99.90;;;;;;5014218;28;20115;-62
2021/12/02 03:37:19;;;;;;;1999.90;999.90;;;2.40;99.90;;;;;;4996128;28;20069;-62
2021/12/02 03:39:46;;;;;;;1999.90;999.90;;;2.40;99.90;;;;;;4993056;28;20046;-62
2021/12/02 03:42:12;;;;;;;1999.90;999.90;;;2.40;99.90;;;;;;4995568;28;20133;-62
2021/12/02 03:44:38;;;;;;;1999.90;999.90;;;2.30;99.90;;;;;;4995373;28;20140;-62
2021/12/02 03:47:04;;;;;;;1999.90;999.90;;;2.30;99.90;;;;;;4994617;28;20090;-61
2021/12/02 03:49:30;;;;;;;1999.90;999.90;;;2.20;99.90;;;;;;4995461;28;20046;-61
2021/12/02 03:51:56;;;;;;;1999.90;999.90;;;2.30;99.90;;;;;;4995396;28;20076;-61
2021/12/02 03:54:22;;;;;;;1999.90;999.90;;;2.30;99.90;;;;;;4994039;28;20043;-61
2021/12/02 03:56:47;;;;;;;1999.90;999.90;;;2.40;99.90;;;;;;4994957;28;20054;-61
2021/12/02 03:59:14;;;;;;;1999.90;999.90;;;2.40;99.90;;;;;;4995249;28;20102;-61
2021/12/02 04:01:39;;;;;;;1999.90;999.90;;;2.40;99.90;;;;;;4994090;28;20449;-61
2021/12/02 04:04:05;;;;;;;1999.90;999.90;;;2.40;99.90;;;;;;4995208;28;20105;-61
2021/12/02 04:06:31;;;;;;;1999.90;999.90;;;2.40;99.90;;;;;;4995159;28;20088;-61
2021/12/02 04:09:03;;;;;;;1999.90;999.90;;;2.40;99.90;;;;;;4993791;28;20137;-62
2021/12/02 04:11:33;;;;;;;1999.90;999.90;;;2.40;99.90;;;;;;4998928;28;20042;-61
2021/12/02 04:14:14;;;;;;;1999.90;999.90;;;2.40;99.90;;;;;;5003165;28;20085;-61
2021/12/02 04:16:50;;;;;;;1999.90;999.90;;;2.40;99.90;;;;;;4984071;28;20062;-61
2021/12/02 04:19:16;;;;;;;1999.90;999.90;;;2.40;99.90;;;;;;4995079;28;20113;-62
2021/12/02 04:21:42;;;;;;;1999.90;999.90;;;2.40;99.90;;;;;;5010090;28;20422;-62
2021/12/02 04:24:08;;;;;;;1999.90;999.90;;;2.40;99.90;;;;;;4992965;28;20456;-61
2021/12/02 04:26:33;;;;;;;1999.90;999.90;;;2.30;99.90;;;;;;4994771;28;20133;-61
2021/12/02 04:28:59;;;;;;;1999.90;999.90;;;2.30;99.90;;;;;;4993608;28;20045;-62
2021/12/02 04:31:25;;;;;;;1999.90;999.90;;;2.20;99.90;;;;;;4994282;28;20054;-61
2021/12/02 04:33:51;;;;;;;1999.90;999.90;;;2.10;99.90;;;;;;4994429;28;20469;-61
2021/12/02 04:36:17;;;;;;;1999.90;999.90;;;1.90;99.90;;;;;;4993771;28;20056;-61
2021/12/02 04:38:42;;;;;;;1999.90;999.90;;;1.80;99.90;;;;;;4994125;28;20439;-61
2021/12/02 04:41:08;;;;;;;1999.90;999.90;;;1.50;99.90;;;;;;4994327;28;20054;-61
2021/12/02 04:43:34;;;;;;;1999.90;999.90;;;1.30;99.90;;;;;;4993213;28;20042;-61
2021/12/02 04:46:00;;;;;;;1999.90;999.90;;;1.20;99.90;;;;;;4975757;28;20114;-61
2021/12/02 04:48:25;;;;;;;1999.90;999.90;;;1.10;99.90;;;;;;4993933;28;20060;-61
2021/12/02 04:50:51;;;;;;;1999.90;999.90;;;1.10;99.90;;;;;;4993547;28;20050;-61
2021/12/02 04:53:18;;;;;;;1999.90;999.90;;;1.10;99.90;;;;;;4993926;28;20054;-61
2021/12/02 04:55:44;;;;;;;1999.90;999.90;;;1.10;99.90;;;;;;4993852;28;20081;-61
2021/12/02 04:58:10;;;;;;;1999.90;999.90;;;1.00;99.90;;;;;;4993348;28;20050;-60
2021/12/02 05:00:36;;;;;;;1999.90;999.90;;;1.10;99.90;;;;;;4993665;28;20065;-61
2021/12/02 05:03:02;;;;;;;1999.90;999.90;;;1.00;99.90;;;;;;4993743;28;20416;-61
2021/12/02 05:05:28;;;;;;;1999.90;999.90;;;1.00;99.90;;;;;;4992879;28;20042;-60
2021/12/02 05:07:54;;;;;;;1999.90;999.90;;;1.00;99.90;;;;;;4993968;28;20050;-61
2021/12/02 05:10:21;;;;;;;1999.90;999.90;;;0.90;99.90;;;;;;4993718;28;20046;-61
2021/12/02 05:12:47;;;;;;;1999.90;999.90;;;1.00;99.90;;;;;;4993018;28;20142;-61
2021/12/02 05:15:13;;;;;;;1999.90;999.90;;;1.00;99.90;;;;;;4993799;28;20042;-61
2021/12/02 05:17:39;;;;;;;1999.90;999.90;;;1.00;99.90;;;;;;4974974;28;20477;-60
2021/12/02 05:20:06;;;;;;;1999.90;999.90;;;1.00;99.90;;;;;;4993837;28;20482;-60
2021/12/02 05:22:32;;;;;;;1999.90;999.90;;;1.00;99.90;;;;;;4993625;28;20049;-60
2021/12/02 05:24:58;;;;;;;1999.90;999.90;;;1.00;99.90;;;;;;4992575;28;20830;-60
2021/12/02 05:27:24;;;;;;;1999.90;999.90;;;1.00;99.90;;;;;;4993586;28;20047;-60
2021/12/02 05:29:50;;;;;;;1999.90;999.90;;;1.00;99.90;;;;;;4993283;28;20046;-61
2021/12/02 05:32:16;;;;;;;1999.90;999.90;;;1.00;99.90;;;;;;4991810;28;20086;-60
2021/12/02 05:34:46;;;;;;;1999.90;999.90;;;1.00;99.90;;;;;;4993756;28;20054;-61
2021/12/02 05:37:12;;;;;;;1999.90;999.90;;;1.00;99.90;;;;;;4997125;28;20043;-61
2021/12/02 05:39:38;;;;;;;1999.90;999.90;;;1.10;99.90;;;;;;4988589;28;20050;-61
2021/12/02 05:42:04;;;;;;;1999.90;999.90;;;1.10;99.90;;;;;;4976064;28;20058;-61
2021/12/02 05:44:30;;;;;;;1999.90;999.90;;;1.20;99.90;;;;;;4993244;28;20121;-61
2021/12/02 05:46:55;;;;;;;1999.90;999.90;;;1.20;99.90;;;;;;5001220;28;20058;-61
2021/12/02 05:49:21;;;;;;;1999.90;999.90;;;1.30;99.90;;;;;;5001195;28;20065;-61
2021/12/02 05:51:47;;;;;;;1999.90;999.90;;;1.30;99.90;;;;;;4993967;28;20050;-61
2021/12/02 05:54:13;;;;;;;1999.90;999.90;;;1.30;99.90;;;;;;4992472;28;20042;-61
2021/12/02 05:56:39;;;;;;;1999.90;999.90;;;1.40;99.90;;;;;;4988324;28;20051;-61
2021/12/02 05:59:05;;;;;;;1999.90;999.90;;;1.30;99.90;;;;;;4977189;28;20054;-61
2021/12/02 06:01:31;;;;;;;1999.90;999.90;;;1.30;99.90;;;;;;4996107;28;20068;-61
2021/12/02 06:03:56;;;;;;;1999.90;999.90;;;1.20;99.90;;;;;;4997419;28;20043;-61
2021/12/02 06:06:25;;;;;;;1999.90;999.90;;;1.30;99.90;;;;;;5003976;28;20512;-61
2021/12/02 06:08:51;;;;;;;1999.90;999.90;;;1.30;99.90;;;;;;5015695;28;20523;-61
2021/12/02 06:11:17;;;;;;;1999.90;999.90;;;1.30;99.90;;;;;;5016745;28;20048;-61
2021/12/02 06:13:46;;;;;;;1999.90;999.90;;;1.20;99.90;;;;;;5016779;28;20046;-61
2021/12/02 06:16:12;;;;;;;1999.90;999.90;;;1.20;99.90;;;;;;5000103;28;20116;-61
2021/12/02 06:18:38;;;;;;;1999.90;999.90;;;1.10;99.90;;;;;;4997121;28;20085;-61
2021/12/02 06:21:04;;;;;;;1999.90;999.90;;;1.10;99.90;;;;;;4978623;28;20078;-61
2021/12/02 06:23:30;;;;;;;1999.90;999.90;;;1.10;99.90;;;;;;4996148;28;20459;-60
2021/12/02 06:25:56;;;;;;;1999.90;999.90;;;1.00;99.90;;;;;;4995597;28;20054;-61
2021/12/02 06:28:22;;;;;;;1999.90;999.90;;;1.00;99.90;;;;;;4995804;28;20054;-61
2021/12/02 06:30:47;;;;;;;1999.90;999.90;;;0.90;99.90;;;;;;4996710;28;20050;-61
2021/12/02 06:33:14;;;;;;;1999.90;999.90;;;1.00;99.90;;;;;;4996605;28;20057;-61
2021/12/02 06:35:40;;;;;;;1999.90;999.90;;;1.00;99.90;;;;;;4996056;28;20042;-61
2021/12/02 06:38:07;;;;;;;1999.90;999.90;;;0.90;99.90;;;;;;4996553;28;20050;-61
2021/12/02 06:40:34;;;;;;;1999.90;999.90;;;0.90;99.90;;;;;;4979682;28;20134;-61
2021/12/02 06:43:02;;;;;;;1999.90;999.90;;;1.00;99.90;;;;;;4997267;28;20148;-61
2021/12/02 06:45:28;;;;;;;1999.90;999.90;;;0.90;99.90;;;;;;4996430;28;20464;-61
2021/12/02 06:47:58;;;;;;;1999.90;999.90;;;1.00;99.90;;;;;;4996528;28;20058;-61
2021/12/02 06:50:24;;;;;;;1999.90;999.90;;;1.00;99.90;;;;;;4977812;28;20140;-61
2021/12/02 06:52:51;;;;;;;1999.90;999.90;;;0.90;99.90;;;;;;4996215;28;20070;-61
2021/12/02 06:55:18;;;;;;;1999.90;999.90;;;1.00;99.90;;;;;;4996526;28;20499;-61
2021/12/02 06:57:45;;;;;;;1999.90;999.90;;;0.90;99.90;;;;;;5015086;28;20093;-61
2021/12/02 07:00:13;;;;;;;1999.90;999.90;;;1.00;99.90;;;;;;5015490;28;20085;-61
2021/12/02 07:02:40;;;;;;;1999.90;999.90;;;0.90;99.90;;;;;;5015855;28;20046;-61
2021/12/02 07:05:08;;;;;;;1999.90;999.90;;;0.90;99.90;;;;;;5015022;28;20042;-61
2021/12/02 07:07:36;;;;;;;1999.90;999.90;;;0.90;99.90;;;;;;5015401;28;20049;-61
2021/12/02 07:10:12;;;;;;;1999.90;999.90;;;0.90;99.90;;;;;;5015331;28;20495;-61
2021/12/02 07:12:40;;;;;;;1999.90;999.90;;;0.80;99.90;;;;;;5008594;28;20050;-61
2021/12/02 07:15:15;;;;;;;1999.90;999.90;;;0.80;99.90;;;;;;4997559;28;20456;-61
2021/12/02 07:17:40;;;;;;;1999.90;999.90;;;0.80;99.90;;;;;;5014527;28;20050;-61
2021/12/02 07:20:08;;;;;;;1999.90;999.90;;;0.70;99.90;;;;;;5023183;28;20092;-61
2021/12/02 07:22:33;;;;;;;1999.90;999.90;;;0.70;99.90;;;;;;5021360;28;20060;-61
2021/12/02 07:24:59;;;;;;;1999.90;999.90;;;0.70;99.90;;;;;;5021998;28;20094;-61
2021/12/02 07:27:25;;;;;;;1999.90;999.90;;;0.70;99.90;;;;;;5023557;28;20042;-61
2021/12/02 07:29:51;;;;;;;1999.90;999.90;;;0.70;99.90;;;;;;5005976;28;20042;-61
2021/12/02 07:32:17;;;;;;;1999.90;999.90;;;0.70;99.90;;;;;;5023644;28;20085;-61
2021/12/02 07:34:45;;;;;;;1999.90;999.90;;;0.70;99.90;;;;;;5000211;28;20041;-61
2021/12/02 07:37:14;;;;;;;1999.90;999.90;;;0.60;99.90;;;;;;5012359;28;20065;-61
2021/12/02 07:39:40;;;;;;;1999.90;999.90;;;0.60;99.90;;;;;;5020409;28;20096;-61
2021/12/02 07:42:06;;;;;;;1999.90;999.90;;;0.60;99.90;;;;;;5024441;28;20041;-61
2021/12/02 07:44:33;;;;;;;1999.90;999.90;;;0.60;99.90;;;;;;5027573;28;20037;-61
2021/12/02 07:47:01;;;;;;;1999.90;999.90;;;0.70;99.90;;;;;;5014340;28;20072;-61
2021/12/02 07:49:26;;;;;;;1999.90;999.90;;;0.70;99.90;;;;;;5015047;28;20053;-61
2021/12/02 07:51:57;;;;;;;1999.90;999.90;;;0.70;99.90;;;;;;4996910;28;20038;-61
2021/12/02 07:54:23;;;;;;;1999.90;999.90;;;0.70;99.90;;;;;;5014025;28;20034;-61
2021/12/02 07:56:49;;;;;;;1999.90;999.90;;;0.70;99.90;;;;;;4990370;28;20042;-61
2021/12/02 07:59:20;;;;;;;1999.90;999.90;;;0.70;99.90;;;;;;5017322;28;20447;-61
2021/12/02 08:01:48;;;;;;;1999.90;999.90;;;0.70;99.90;;;;;;5017371;28;20488;-61
2021/12/02 08:04:13;;;;;;;1999.90;999.90;;;0.70;99.90;;;;;;5014547;28;20046;-61
2021/12/02 08:06:39;;;;;;;1999.90;999.90;;;0.70;99.90;;;;;;5013550;28;20240;-61
2021/12/02 08:09:06;;;;;;;1999.90;999.90;;;0.70;99.90;;;;;;5019519;28;20377;-61
2021/12/02 08:11:32;;;;;;;1999.90;999.90;;;0.70;99.90;;;;;;5014303;28;20061;-61
2021/12/02 08:13:59;;;;;;;1999.90;999.90;;;0.70;99.90;;;;;;5012688;28;20511;-61
2021/12/02 08:16:25;;;;;;;1999.90;999.90;;;0.60;99.90;;;;;;4996489;28;20556;-61
2021/12/02 08:18:51;;;;;;;1999.90;999.90;;;0.70;99.90;;;;;;5022070;28;20167;-61
2021/12/02 08:21:17;;;;;;;1999.90;999.90;;;0.70;99.90;;;;;;5032269;28;20045;-61
2021/12/02 08:23:43;;;;;;;1999.90;999.90;;;0.70;99.90;;;;;;5014049;28;20046;-61
2021/12/02 08:26:12;;;;;;;1999.90;999.90;;;0.70;99.90;;;;;;5013289;28;20049;-61
2021/12/02 08:28:37;;;;;;;1999.90;999.90;;;0.70;99.90;;;;;;5012761;28;20045;-61
2021/12/02 08:31:03;;;;;;;1999.90;999.90;;;0.80;99.90;;;;;;5033101;28;20041;-61
2021/12/02 08:33:29;;;;;;;1999.90;999.90;;;0.90;99.90;;;;;;5032486;28;20051;-61
2021/12/02 08:35:55;;;;;;;1999.90;999.90;;;1.00;99.90;;;;;;5012680;28;20045;-61
2021/12/02 08:38:29;;;;;;;1999.90;999.90;;;1.00;99.90;;;;;;5012245;28;20046;-61
2021/12/02 08:40:57;;;;;;;1999.90;999.90;;;1.10;99.90;;;;;;5013525;28;20054;-61
2021/12/02 08:43:23;;;;;;;1999.90;999.90;;;1.20;99.90;;;;;;5012222;28;20038;-61
2021/12/02 08:45:49;;;;;;;1999.90;999.90;;;1.30;99.90;;;;;;5022058;28;20060;-61
2021/12/02 08:48:15;;;;;;;1999.90;999.90;;;1.40;99.90;;;;;;5033900;28;20057;-61
2021/12/02 08:50:41;;;;;;;1999.90;999.90;;;1.50;99.90;;;;;;5032562;28;20045;-61
2021/12/02 08:53:09;;;;;;;1999.90;999.90;;;1.50;99.90;;;;;;5033621;28;20056;-61
2021/12/02 08:55:35;;;;;;;1999.90;999.90;;;1.70;99.90;;;;;;5015110;28;20111;-61
2021/12/02 08:58:03;;;;;;;1999.90;999.90;;;1.80;99.90;;;;;;5021399;28;20506;-62
2021/12/02 09:00:34;;;;;;;1999.90;999.90;;;1.90;99.90;;;;;;5013775;28;20042;-62
2021/12/02 09:03:00;;;;;;;1999.90;999.90;;;1.90;99.90;;;;;;5017112;28;20111;-61
2021/12/02 09:05:26;;;;;;;1999.90;999.90;;;2.00;99.90;;;;;;5033081;28;20051;-61
2021/12/02 09:07:53;;;;;;;1999.90;999.90;;;2.00;99.90;;;;;;5011325;28;20144;-61
2021/12/02 09:10:22;;;;;;;1999.90;999.90;;;2.00;99.90;;;;;;5012068;28;20041;-61
2021/12/02 09:12:48;;;;;;;1999.90;999.90;;;2.00;99.90;;;;;;5014534;28;20049;-61
2021/12/02 09:15:15;;;;;;;1999.90;999.90;;;2.00;99.90;;;;;;5012836;28;20443;-61
2021/12/02 09:17:41;;;;;;;1999.90;999.90;;;2.00;99.90;;;;;;5010681;28;20112;-61
2021/12/02 09:20:09;;;;;;;1999.90;999.90;;;2.10;99.90;;;;;;5013125;28;20049;-61
2021/12/02 09:22:35;;;;;;;1999.90;999.90;;;2.10;99.90;;;;;;5017333;28;20062;-61
2021/12/02 09:25:03;;;;;;;1999.90;999.90;;;2.20;99.90;;;;;;5012453;28;20436;-61
2021/12/02 09:27:29;;;;;;;1999.90;999.90;;;2.30;99.90;;;;;;4995296;28;20137;-61
2021/12/02 09:29:54;;;;;;;1999.90;999.90;;;2.40;99.90;;;;;;5020435;28;20069;-61
2021/12/02 09:32:20;;;;;;;1999.90;999.90;;;2.40;99.90;;;;;;5032247;28;20187;-61
2021/12/02 09:34:47;;;;;;;1999.90;999.90;;;2.50;99.90;;;;;;5032586;28;20083;-62
2021/12/02 09:37:13;;;;;;;1999.90;999.90;;;2.50;99.90;;;;;;5032840;28;20068;-61
2021/12/02 09:39:40;;;;;;;1999.90;999.90;;;2.50;99.90;;;;;;5031765;28;20045;-61
2021/12/02 09:42:10;;;;;;;1999.90;999.90;;;2.40;99.90;;;;;;5032495;28;20112;-61
2021/12/02 09:44:37;;;;;;;1999.90;999.90;;;2.40;99.90;;;;;;5019240;28;20038;-61
2021/12/02 09:47:04;;;;;;;1999.90;999.90;;;2.40;99.90;;;;;;5015345;28;20061;-62
2021/12/02 09:49:30;;;;;;;1999.90;999.90;;;2.60;99.90;;;;;;5017431;28;20053;-62
2021/12/02 09:52:02;;;;;;;1999.90;999.90;;;2.40;99.90;;;;;;5012041;28;20049;-61
2021/12/02 09:54:32;;;;;;;1999.90;999.90;;;2.40;99.90;;;;;;5022070;28;20052;-61
2021/12/02 09:57:03;;;;;;;1999.90;999.90;;;2.40;99.90;;;;;;5023566;28;20057;-63
2021/12/02 09:59:35;;;;;;;1999.90;999.90;;;2.40;99.90;;;;;;5031894;28;20128;-62
2021/12/02 10:02:05;;;;;;;1999.90;999.90;;;2.40;99.90;;;;;;5031944;28;20045;-62
2021/12/02 10:04:34;;;;;;;1999.90;999.90;;;2.40;99.90;;;;;;5031560;28;20391;-62
2021/12/02 10:07:06;;;;;;;1999.90;999.90;;;2.40;99.90;;;;;;5025301;28;20038;-62
2021/12/02 10:09:44;;;;;;;;;;;2.40;99.90;;;;;;5013105;28;20046;-62
2021/12/02 10:12:15;;;;;;;1999.90;999.90;;;2.30;99.90;;;;;;5025376;28;19928;-61
2021/12/02 10:14:51;;;;;;;1999.90;999.90;;;2.30;99.90;;;;;;5009450;28;20050;-62
2021/12/02 10:17:26;;;;;;;1999.90;999.90;;;2.30;99.90;;;;;;5006969;28;20054;-61
2021/12/02 10:20:12;;;;;;;1999.90;999.90;;;2.30;99.90;;;;;;5014074;28;20076;-62
2021/12/02 10:22:38;;;;;;;1999.90;999.90;;;2.30;99.90;;;;;;5025254;28;20050;-62
2021/12/02 10:25:04;;;;;;;1999.90;999.90;;;2.30;99.90;;;;;;5032594;28;20361;-62
2021/12/02 10:27:30;;;;;;;1999.90;999.90;;;2.40;99.90;;;;;;5020600;28;20052;-62
2021/12/02 10:29:56;;;;;;;1999.90;999.90;;;2.40;99.90;;;;;;5011780;28;20038;-62
2021/12/02 10:32:28;;;;;;;1999.90;999.90;;;2.50;99.90;;;;;;5013983;28;20404;-62
2021/12/02 10:35:00;;;;;;;1999.90;999.90;;;2.50;99.90;;;;;;5010882;28;20493;-62
2021/12/02 10:37:30;;;;;;;1999.90;999.90;;;2.50;99.90;;;;;;5012206;28;20054;-62
2021/12/02 10:40:05;;;;;;;1999.90;999.90;;;2.60;99.90;;;;;;5031731;28;20046;-62
2021/12/02 10:42:32;;;;;;;1999.90;999.90;;;2.90;99.90;;;;;;5012905;28;20511;-62
2021/12/02 10:45:02;;;;;;;1999.90;999.90;;;3.70;99.90;;;;;;5025806;28;20472;-62
2021/12/02 10:47:29;;;;;;;1999.90;999.90;;;4.10;99.90;;;;;;5015735;28;20053;-62
2021/12/02 10:50:00;;;;;;;1999.90;999.90;;;4.20;99.90;;;;;;5024699;28;20468;-62
2021/12/02 10:52:30;;;;;;;1999.90;999.90;;;4.10;99.90;;;;;;5031136;28;20488;-62
2021/12/02 10:55:03;;;;;;;1999.90;999.90;;;4.00;99.90;;;;;;5016100;28;20077;-62
2021/12/02 10:57:31;;;;;;;1999.90;999.90;;;3.80;99.90;;;;;;5006412;28;20073;-62
2021/12/02 10:59:59;;;;;;;1999.90;999.90;;;3.60;99.90;;;;;;4996239;28;20042;-62
2021/12/02 11:02:34;;;;;;;1999.90;999.90;;;3.30;99.90;;;;;;4995328;28;20052;-62
2021/12/02 11:05:05;;;;;;;1999.90;999.90;;;3.00;99.90;;;;;;5006089;28;20042;-62
2021/12/02 11:07:33;;;;;;;1999.90;999.90;;;2.70;99.90;;;;;;5014737;28;20381;-62
2021/12/02 11:10:02;;;;;;;1999.90;999.90;;;2.40;99.90;;;;;;5003982;28;20053;-62
2021/12/02 11:12:31;;;;;;;1999.90;999.90;;;2.20;99.90;;;;;;4993506;28;20547;-62
2021/12/02 11:15:02;;;;;;;1999.90;999.90;;;1.90;99.90;;;;;;4996075;28;20054;-63
2021/12/02 11:17:34;;;;;;;1999.90;999.90;;;1.70;99.90;;;;;;4989891;28;20053;-63
2021/12/02 11:20:04;;;;;;;1999.90;999.90;;;1.60;99.90;;;;;;4995866;28;20081;-63
2021/12/02 11:22:30;;;;;;;1999.90;999.90;;;1.60;99.90;;;;;;4995904;28;20042;-64
2021/12/02 11:24:58;;;;;;;1999.90;999.90;;;1.60;99.90;;;;;;5002368;28;20061;-64
2021/12/02 11:27:28;;;;;;;1999.90;999.90;;;1.50;99.90;;;;;;5015118;28;20046;-64
2021/12/02 11:29:57;;;;;;;1999.90;999.90;;;1.50;99.90;;;;;;5015332;28;20042;-64
2021/12/02 11:32:26;;;;;;;1999.90;999.90;;;1.50;99.90;;;;;;5014401;28;20046;-64
2021/12/02 11:35:15;;;;;;;1999.90;999.90;;;1.40;99.90;;;;;;5011067;28;20108;-64
2021/12/02 11:37:47;;;;;;;1999.90;999.90;;;1.40;99.90;;;;;;5001557;28;20050;-64
2021/12/02 11:40:18;;;;;;;1999.90;999.90;;;1.40;99.90;;;;;;5014547;28;20145;-64
2021/12/02 11:42:45;;;;;;;1999.90;999.90;;;1.40;99.90;;;;;;5006248;28;20412;-63
2021/12/02 11:45:12;;;;;;;1999.90;999.90;;;1.50;99.90;;;;;;5004885;28;20429;-64
2021/12/02 11:47:38;;;;;;;1999.90;999.90;;;1.60;99.90;;;;;;5011037;28;20045;-63
2021/12/02 11:50:07;;;;;;;1999.90;999.90;;;1.60;99.90;;;;;;5014819;28;20377;-63
2021/12/02 11:52:36;;;;;;;1999.90;999.90;;;1.60;99.90;;;;;;4997563;28;20050;-63
2021/12/02 11:55:06;;;;;;;1999.90;999.90;;;1.60;99.90;;;;;;4998149;28;20062;-63
2021/12/02 11:57:33;;;;;;;1999.90;999.90;;;1.60;99.90;;;;;;5032756;28;20068;-63
2021/12/02 12:00:02;;;;;;;1999.90;999.90;;;1.50;99.90;;;;;;5032847;28;20049;-64
2021/12/02 12:02:45;;;;;;;1999.90;999.90;;;1.40;99.90;;;;;;5033762;28;20353;-64
2021/12/02 12:05:13;;;;;;;1999.90;999.90;;;1.20;99.90;;;;;;5018853;28;20042;-65
2021/12/02 12:07:42;;;;;;;1999.90;999.90;;;1.10;99.90;;;;;;5013796;28;20061;-65
2021/12/02 12:10:13;;;;;;;1999.90;999.90;;;1.00;99.90;;;;;;5013858;28;20045;-66
2021/12/02 12:12:42;;;;;;;1999.90;999.90;;;0.90;99.90;;;;;;5013417;28;20058;-66
2021/12/02 12:15:30;;;;;;;1999.90;999.90;;;0.90;99.90;;;;;;4996987;28;20081;-66
2021/12/02 12:17:56;;;;;;;1999.90;999.90;;;0.80;99.90;;;;;;5013140;28;20037;-66
2021/12/02 12:20:50;;;;;;;1999.90;999.90;;;0.80;99.90;;;;;;4995614;28;20142;-65